Time;durP1;ratioP1;P1;durP2;ratioP2;P2;SDS_P1;SDS_P2;PMS_P1;PMS_P2;Temp;Humidity;BMP_temperature;BMP_pressure;BME280_temperature;BME280_humidity;BME280_pressure;Samples;Min_cycle;Max_cycle;Signal;HPM_P1;HPM_P2
2021/12/29 00:01:57;;;;;;;32.63;17.87;;;2.70;99.90;;;;;;5051935;28;20690;-48
2021/12/29 00:04:27;;;;;;;29.67;16.83;;;2.70;99.90;;;;;;5059631;28;20573;-48
2021/12/29 00:06:56;;;;;;;30.73;16.37;;;2.60;99.90;;;;;;5056103;28;20740;-47
2021/12/29 00:09:23;;;;;;;24.27;14.67;;;2.60;99.90;;;;;;5056997;28;20218;-48
2021/12/29 00:11:51;;;;;;;34.60;18.10;;;2.60;99.90;;;;;;5063282;28;20687;-47
2021/12/29 00:14:18;;;;;;;32.07;17.87;;;2.60;99.90;;;;;;5061494;28;20658;-51
2021/12/29 00:16:45;;;;;;;34.30;17.47;;;2.60;99.90;;;;;;5048005;28;20217;-49
2021/12/29 00:19:11;;;;;;;35.97;17.93;;;2.70;99.90;;;;;;5062060;28;20211;-48
2021/12/29 00:21:38;;;;;;;32.87;17.23;;;2.70;99.90;;;;;;5052239;28;20231;-49
2021/12/29 00:24:06;;;;;;;31.23;17.20;;;2.70;99.90;;;;;;5063817;28;20206;-51
2021/12/29 00:26:34;;;;;;;30.30;16.73;;;2.70;99.90;;;;;;5060543;28;20221;-48
2021/12/29 00:29:02;;;;;;;34.43;16.97;;;2.70;99.90;;;;;;5063578;28;20686;-52
2021/12/29 00:31:30;;;;;;;34.63;17.23;;;2.70;99.90;;;;;;5046623;28;20226;-49
2021/12/29 00:34:15;;;;;;;27.20;16.47;;;2.70;99.90;;;;;;5061137;28;20229;-49
2021/12/29 00:37:01;;;;;;;32.67;17.07;;;2.70;99.90;;;;;;5059285;28;20619;-49
2021/12/29 00:39:48;;;;;;;31.47;16.77;;;2.70;99.90;;;;;;5061709;28;20794;-50
2021/12/29 00:42:23;;;;;;;28.50;15.23;;;2.70;99.90;;;;;;5060315;28;20744;-51
2021/12/29 00:45:31;;;;;;;30.63;16.53;;;2.70;99.90;;;;;;5034303;28;20245;-49
2021/12/29 00:47:57;;;;;;;36.80;16.00;;;2.70;99.90;;;;;;5050457;28;20207;-46
2021/12/29 00:50:24;;;;;;;28.27;15.20;;;2.70;99.90;;;;;;5059196;28;20533;-50
2021/12/29 00:52:51;;;;;;;30.50;16.40;;;2.60;99.90;;;;;;5055790;28;20726;-47
2021/12/29 00:55:19;;;;;;;32.83;16.77;;;2.60;99.90;;;;;;5060801;28;20206;-47
2021/12/29 00:57:47;;;;;;;28.90;16.63;;;2.70;99.90;;;;;;5062058;28;20231;-50
2021/12/29 01:00:17;;;;;;;30.93;15.73;;;2.70;99.90;;;;;;5061731;28;20206;-49
2021/12/29 01:02:45;;;;;;;31.77;16.93;;;2.70;99.90;;;;;;5048775;28;20233;-49
2021/12/29 01:05:14;;;;;;;31.37;17.27;;;2.70;99.90;;;;;;5061467;28;20225;-53
2021/12/29 01:07:41;;;;;;;30.57;16.07;;;2.70;99.90;;;;;;5053114;28;20915;-47
2021/12/29 01:10:09;;;;;;;32.93;16.33;;;2.70;99.90;;;;;;5062497;28;20281;-51
2021/12/29 01:12:35;;;;;;;31.97;16.77;;;2.70;99.90;;;;;;5060229;28;20226;-48
2021/12/29 01:15:03;;;;;;;30.77;16.27;;;2.70;99.90;;;;;;5062933;28;20194;-50
2021/12/29 01:17:31;;;;;;;36.03;17.77;;;2.70;99.90;;;;;;5058801;28;20206;-51
2021/12/29 01:19:59;;;;;;;35.10;17.07;;;2.70;99.90;;;;;;5049718;28;20281;-49
2021/12/29 01:22:26;;;;;;;30.00;15.73;;;2.70;99.90;;;;;;5050244;28;20226;-47
2021/12/29 01:24:52;;;;;;;37.33;19.33;;;2.70;99.90;;;;;;5062942;28;20218;-49
2021/12/29 01:27:19;;;;;;;40.73;19.27;;;2.60;99.90;;;;;;5059464;28;20606;-48
2021/12/29 01:29:47;;;;;;;58.47;23.27;;;2.60;99.90;;;;;;5062298;28;20689;-47
2021/12/29 01:32:14;;;;;;;46.93;21.77;;;2.60;99.90;;;;;;5061079;28;20229;-49
2021/12/29 01:34:40;;;;;;;48.03;22.70;;;2.60;99.90;;;;;;5049999;28;20899;-48
2021/12/29 01:37:10;;;;;;;47.83;20.90;;;2.60;99.90;;;;;;5066538;28;20190;-54
2021/12/29 01:39:36;;;;;;;48.80;21.67;;;2.60;99.90;;;;;;5055751;28;20201;-48
2021/12/29 01:42:04;;;;;;;41.03;20.10;;;2.60;99.90;;;;;;5067209;28;20210;-47
2021/12/29 01:44:30;;;;;;;45.37;22.37;;;2.60;99.90;;;;;;5062600;28;20198;-48
2021/12/29 01:46:58;;;;;;;49.30;21.83;;;2.60;99.90;;;;;;5066789;28;20222;-46
2021/12/29 01:49:25;;;;;;;53.73;22.83;;;2.60;99.90;;;;;;5049663;28;20223;-50
2021/12/29 01:52:02;;;;;;;53.07;23.00;;;2.60;99.90;;;;;;5066261;28;20232;-46
2021/12/29 01:54:34;;;;;;;52.17;22.40;;;2.50;99.90;;;;;;5054591;28;20981;-51
2021/12/29 01:57:02;;;;;;;46.53;22.63;;;2.50;99.90;;;;;;5059492;28;20199;-49
2021/12/29 01:59:29;;;;;;;53.77;23.30;;;2.50;99.90;;;;;;5056519;28;20229;-49
2021/12/29 02:01:57;;;;;;;52.40;22.93;;;2.50;99.90;;;;;;5059715;28;20223;-48
2021/12/29 02:04:25;;;;;;;58.33;23.23;;;2.50;99.90;;;;;;5055598;28;20203;-51
2021/12/29 02:06:52;;;;;;;59.10;23.83;;;2.50;99.90;;;;;;5051149;28;20233;-48
2021/12/29 02:09:19;;;;;;;62.93;23.03;;;2.50;99.90;;;;;;5057378;28;20199;-49
2021/12/29 02:11:47;;;;;;;67.33;23.63;;;2.50;99.90;;;;;;5064060;28;20229;-47
2021/12/29 02:14:14;;;;;;;51.10;21.13;;;2.50;99.90;;;;;;5064371;28;20207;-51
2021/12/29 02:16:42;;;;;;;51.23;22.47;;;2.50;99.90;;;;;;5064585;28;20199;-49
2021/12/29 02:19:13;;;;;;;49.67;22.67;;;2.50;99.90;;;;;;5057884;28;20251;-50
2021/12/29 02:21:50;;;;;;;56.70;24.83;;;2.50;99.90;;;;;;5050845;28;20206;-46
2021/12/29 02:24:23;;;;;;;58.70;23.57;;;2.50;99.90;;;;;;5063689;28;20195;-46
2021/12/29 02:26:51;;;;;;;40.73;18.97;;;2.50;99.90;;;;;;5056434;28;20214;-46
2021/12/29 02:29:19;;;;;;;48.70;21.37;;;2.50;99.90;;;;;;5063230;28;20210;-51
2021/12/29 02:31:47;;;;;;;50.37;22.37;;;2.50;99.90;;;;;;5064827;28;20218;-52
2021/12/29 02:34:15;;;;;;;44.50;22.20;;;2.50;99.90;;;;;;5064322;28;20285;-53
2021/12/29 02:36:46;;;;;;;52.63;22.60;;;2.50;99.90;;;;;;5050646;28;20287;-51
2021/12/29 02:39:18;;;;;;;53.07;22.13;;;2.50;99.90;;;;;;5064358;28;20237;-47
2021/12/29 02:41:50;;;;;;;93.33;23.47;;;2.50;99.90;;;;;;5048098;28;20342;-49
2021/12/29 02:44:21;;;;;;;67.50;22.37;;;2.40;99.90;;;;;;5063374;28;20281;-52
2021/12/29 02:46:48;;;;;;;51.93;23.13;;;2.40;99.90;;;;;;5046881;28;20578;-48
2021/12/29 02:49:15;;;;;;;50.47;22.20;;;2.40;99.90;;;;;;5063400;28;20203;-53
2021/12/29 02:51:43;;;;;;;49.33;22.40;;;2.40;99.90;;;;;;5064124;28;20229;-49
2021/12/29 02:54:10;;;;;;;52.07;22.60;;;2.40;99.90;;;;;;5051479;28;20203;-49
2021/12/29 02:56:36;;;;;;;48.50;21.37;;;2.40;99.90;;;;;;5053912;28;20214;-45
2021/12/29 02:59:03;;;;;;;49.37;23.07;;;2.40;99.90;;;;;;5065679;28;20210;-48
2021/12/29 03:01:30;;;;;;;53.83;22.43;;;2.40;99.90;;;;;;5060975;28;20206;-48
2021/12/29 03:03:59;;;;;;;50.20;22.90;;;2.40;99.90;;;;;;5065695;28;20218;-50
2021/12/29 03:06:27;;;;;;;52.10;22.67;;;2.40;99.90;;;;;;5060921;28;20817;-52
2021/12/29 03:08:55;;;;;;;57.97;22.57;;;2.40;99.90;;;;;;5052583;28;20206;-48
2021/12/29 03:11:22;;;;;;;47.50;22.57;;;2.40;99.90;;;;;;5061465;28;20218;-52
2021/12/29 03:13:49;;;;;;;49.70;21.37;;;2.40;99.90;;;;;;5060406;28;20202;-46
2021/12/29 03:16:16;;;;;;;49.70;23.03;;;2.40;99.90;;;;;;5063004;28;20202;-51
2021/12/29 03:18:43;;;;;;;44.80;20.70;;;2.40;99.90;;;;;;5063389;28;20201;-46
2021/12/29 03:21:12;;;;;;;53.67;22.67;;;2.40;99.90;;;;;;5064374;28;20205;-49
2021/12/29 03:23:40;;;;;;;56.90;23.30;;;2.40;99.90;;;;;;5062720;28;20206;-49
2021/12/29 03:26:08;;;;;;;51.10;22.87;;;2.40;99.90;;;;;;5051647;28;20214;-49
2021/12/29 03:28:35;;;;;;;55.70;24.27;;;2.40;99.90;;;;;;5053534;28;20199;-48
2021/12/29 03:31:03;;;;;;;52.53;23.93;;;2.40;99.90;;;;;;5064805;28;20209;-46
2021/12/29 03:33:30;;;;;;;55.13;24.57;;;2.40;99.90;;;;;;5061040;28;20218;-50
2021/12/29 03:36:01;;;;;;;54.87;23.60;;;2.40;99.90;;;;;;5064409;28;20206;-50
2021/12/29 03:38:29;;;;;;;48.53;21.13;;;2.40;99.90;;;;;;5060798;28;20198;-48
2021/12/29 03:40:57;;;;;;;56.17;24.20;;;2.40;99.90;;;;;;5051304;28;20955;-49
2021/12/29 03:43:27;;;;;;;44.93;22.90;;;2.40;99.90;;;;;;5052658;28;20962;-52
2021/12/29 03:45:54;;;;;;;49.93;22.57;;;2.50;99.90;;;;;;5060684;28;20297;-50
2021/12/29 03:48:24;;;;;;;55.53;21.57;;;2.40;99.90;;;;;;5061277;28;20292;-51
2021/12/29 03:50:51;;;;;;;55.70;22.57;;;2.40;99.90;;;;;;5064809;28;20203;-47
2021/12/29 03:53:18;;;;;;;48.60;22.03;;;2.40;99.90;;;;;;5061640;28;20226;-49
2021/12/29 03:55:45;;;;;;;45.90;21.37;;;2.50;99.90;;;;;;5050461;28;20206;-46
2021/12/29 03:58:13;;;;;;;49.50;20.83;;;2.40;99.90;;;;;;5061566;28;20206;-49
2021/12/29 04:00:41;;;;;;;49.77;23.17;;;2.50;99.90;;;;;;5054189;28;20194;-49
2021/12/29 04:03:08;;;;;;;64.80;20.23;;;2.40;99.90;;;;;;5064002;28;20229;-49
2021/12/29 04:05:36;;;;;;;53.77;22.57;;;2.40;99.90;;;;;;5060879;28;20835;-46
2021/12/29 04:08:03;;;;;;;53.03;21.43;;;2.40;99.90;;;;;;5064077;28;20568;-46
2021/12/29 04:10:30;;;;;;;44.67;21.90;;;2.40;99.90;;;;;;5046757;28;20206;-47
2021/12/29 04:12:58;;;;;;;53.63;21.90;;;2.40;99.90;;;;;;5063742;28;20222;-46
2021/12/29 04:15:25;;;;;;;62.53;20.47;;;2.40;99.90;;;;;;5051861;28;20202;-49
2021/12/29 04:17:58;;;;;;;42.67;21.43;;;2.40;99.90;;;;;;5063657;28;20226;-47
2021/12/29 04:23:10;;;;;;;53.83;20.93;;;2.40;99.90;;;;;;5062485;28;20218;-47
2021/12/29 04:25:38;;;;;;;49.57;22.67;;;2.30;99.90;;;;;;5061411;28;20202;-45
2021/12/29 04:28:08;;;;;;;47.50;22.57;;;2.30;99.90;;;;;;5048796;28;20222;-48
2021/12/29 04:30:35;;;;;;;46.23;21.87;;;2.40;99.90;;;;;;5034237;28;20667;-46
2021/12/29 04:33:04;;;;;;;51.03;23.30;;;2.40;99.90;;;;;;5062569;28;20707;-49
2021/12/29 04:35:30;;;;;;;51.67;23.07;;;2.40;99.90;;;;;;5058053;28;20191;-51
2021/12/29 04:37:57;;;;;;;47.20;23.00;;;2.40;99.90;;;;;;5059514;28;20195;-51
2021/12/29 04:40:24;;;;;;;52.13;23.80;;;2.40;99.90;;;;;;5053258;28;20206;-47
2021/12/29 04:42:50;;;;;;;53.57;23.50;;;2.40;99.90;;;;;;5048564;28;20218;-51
2021/12/29 04:45:18;;;;;;;47.17;22.87;;;2.50;99.90;;;;;;5061384;28;20190;-48
2021/12/29 04:47:48;;;;;;;49.27;22.43;;;2.50;99.90;;;;;;5054197;28;20593;-50
2021/12/29 04:50:25;;;;;;;48.40;24.10;;;2.50;99.90;;;;;;5061370;28;20271;-49
2021/12/29 04:52:53;;;;;;;50.60;22.70;;;2.50;99.90;;;;;;5061048;28;20283;-49
2021/12/29 04:55:19;;;;;;;51.43;23.23;;;2.50;99.90;;;;;;5062230;28;20885;-49
2021/12/29 04:57:46;;;;;;;46.77;22.87;;;2.50;99.90;;;;;;5058296;28;20679;-49
2021/12/29 05:00:15;;;;;;;49.60;22.33;;;2.50;99.90;;;;;;5049496;28;20715;-48
2021/12/29 05:02:42;;;;;;;45.30;21.20;;;2.50;99.90;;;;;;5047110;28;20223;-50
2021/12/29 05:05:19;;;;;;;44.60;22.20;;;2.60;99.90;;;;;;5062352;28;20206;-48
2021/12/29 05:10:33;;;;;;;41.43;22.63;;;2.60;99.90;;;;;;5058834;28;20196;-50
2021/12/29 05:12:59;;;;;;;49.73;22.83;;;2.50;99.90;;;;;;5062947;28;20214;-46
2021/12/29 05:15:26;;;;;;;49.43;22.57;;;2.50;99.90;;;;;;5045755;28;20225;-53
2021/12/29 05:17:54;;;;;;;39.90;20.67;;;2.50;99.90;;;;;;5054540;28;20285;-46
2021/12/29 05:20:21;;;;;;;43.93;21.97;;;2.50;99.90;;;;;;5060877;28;20588;-51
2021/12/29 05:22:49;;;;;;;42.33;20.73;;;2.50;99.90;;;;;;5059445;28;20221;-51
2021/12/29 05:25:15;;;;;;;40.07;19.97;;;2.50;99.90;;;;;;5060488;28;20202;-47
2021/12/29 05:27:42;;;;;;;91.47;22.77;;;2.50;99.90;;;;;;5054328;28;20214;-50
2021/12/29 05:30:09;;;;;;;38.80;20.60;;;2.50;99.90;;;;;;5050666;28;20206;-46
2021/12/29 05:32:36;;;;;;;43.90;20.90;;;2.60;99.90;;;;;;5050540;28;20226;-49
2021/12/29 05:35:03;;;;;;;50.33;20.47;;;2.50;99.90;;;;;;5062125;28;20209;-48
2021/12/29 05:37:30;;;;;;;42.10;20.77;;;2.50;99.90;;;;;;5058646;28;20199;-46
2021/12/29 05:39:58;;;;;;;38.23;20.90;;;2.50;99.90;;;;;;5062463;28;20206;-45
2021/12/29 05:42:25;;;;;;;49.10;21.30;;;2.50;99.90;;;;;;5054582;28;20736;-49
2021/12/29 05:44:51;;;;;;;36.90;20.50;;;2.50;99.90;;;;;;5062011;28;20217;-48
2021/12/29 05:47:18;;;;;;;46.03;21.33;;;2.50;99.90;;;;;;5043139;28;20225;-48
2021/12/29 05:49:45;;;;;;;43.67;21.07;;;2.50;99.90;;;;;;5056627;28;20198;-48
2021/12/29 05:52:15;;;;;;;34.93;18.27;;;2.50;99.90;;;;;;5061797;28;20218;-48
2021/12/29 05:54:42;;;;;;;48.57;21.50;;;2.50;99.90;;;;;;5060583;28;20202;-46
2021/12/29 05:57:10;;;;;;;44.00;22.43;;;2.50;99.90;;;;;;5054906;28;20205;-50
2021/12/29 05:59:37;;;;;;;39.70;19.67;;;2.50;99.90;;;;;;5058957;28;20190;-46
2021/12/29 06:02:04;;;;;;;41.07;19.70;;;2.50;99.90;;;;;;5049885;28;20225;-47
2021/12/29 06:04:31;;;;;;;33.13;19.63;;;2.50;99.90;;;;;;5049955;28;20202;-48
2021/12/29 06:06:58;;;;;;;35.73;19.37;;;2.60;99.90;;;;;;5061551;28;20215;-47
2021/12/29 06:09:25;;;;;;;42.83;19.57;;;2.60;99.90;;;;;;5055556;28;20210;-50
2021/12/29 06:11:51;;;;;;;43.60;19.47;;;2.60;99.90;;;;;;5060981;28;20233;-50
2021/12/29 06:14:19;;;;;;;43.53;19.83;;;2.60;99.90;;;;;;5059769;28;20212;-48
2021/12/29 06:16:47;;;;;;;36.33;19.00;;;2.60;99.90;;;;;;5047364;28;21196;-47
2021/12/29 06:19:13;;;;;;;44.30;20.80;;;2.60;99.90;;;;;;5059762;28;20206;-46
2021/12/29 06:21:40;;;;;;;48.00;21.63;;;2.60;99.90;;;;;;5056333;28;20225;-47
2021/12/29 06:24:07;;;;;;;46.10;21.40;;;2.60;99.90;;;;;;5066360;28;20273;-45
2021/12/29 06:26:34;;;;;;;45.27;21.90;;;2.60;99.90;;;;;;5060545;28;20240;-48
2021/12/29 06:29:01;;;;;;;39.77;20.97;;;2.60;99.90;;;;;;5064814;28;20210;-48
2021/12/29 06:31:29;;;;;;;50.47;21.97;;;2.60;99.90;;;;;;5055982;28;20576;-45
2021/12/29 06:33:55;;;;;;;47.87;21.73;;;2.60;99.90;;;;;;5052043;28;20320;-46
2021/12/29 06:36:22;;;;;;;39.93;20.20;;;2.60;99.90;;;;;;5056726;28;20277;-47
2021/12/29 06:38:49;;;;;;;45.43;21.73;;;2.60;99.90;;;;;;5057616;28;20206;-46
2021/12/29 06:41:15;;;;;;;38.27;19.83;;;2.60;99.90;;;;;;5064633;28;20206;-48
2021/12/29 06:43:42;;;;;;;42.73;20.30;;;2.60;99.90;;;;;;5058377;28;20897;-48
2021/12/29 06:46:08;;;;;;;45.20;21.17;;;2.60;99.90;;;;;;5065232;28;20213;-48
2021/12/29 06:48:36;;;;;;;48.77;21.43;;;2.60;99.90;;;;;;5049033;28;20225;-51
2021/12/29 06:51:03;;;;;;;42.63;20.90;;;2.50;99.90;;;;;;5065253;28;20206;-48
2021/12/29 06:53:31;;;;;;;47.93;21.63;;;2.50;99.90;;;;;;5053194;28;20234;-48
2021/12/29 06:55:59;;;;;;;40.50;19.73;;;2.50;99.90;;;;;;5065351;28;20286;-49
2021/12/29 06:58:26;;;;;;;42.77;21.23;;;2.50;99.90;;;;;;5057035;28;20202;-50
2021/12/29 07:00:52;;;;;;;42.33;21.03;;;2.50;99.90;;;;;;5064019;28;20211;-47
2021/12/29 07:03:19;;;;;;;49.90;23.50;;;2.50;99.90;;;;;;5056472;28;20226;-51
2021/12/29 07:05:47;;;;;;;45.30;21.80;;;2.60;99.90;;;;;;5057738;28;20201;-48
2021/12/29 07:08:14;;;;;;;46.97;21.93;;;2.60;99.90;;;;;;5055994;28;20566;-49
2021/12/29 07:10:42;;;;;;;44.47;21.40;;;2.60;99.90;;;;;;5062435;28;20203;-46
2021/12/29 07:13:09;;;;;;;46.93;22.17;;;2.60;99.90;;;;;;5065115;28;20272;-46
2021/12/29 07:15:36;;;;;;;53.47;22.80;;;2.60;99.90;;;;;;5055456;28;20195;-48
2021/12/29 07:18:02;;;;;;;46.53;22.13;;;2.60;99.90;;;;;;5064986;28;20206;-50
2021/12/29 07:20:29;;;;;;;48.70;22.73;;;2.60;99.90;;;;;;5047847;28;20221;-51
2021/12/29 07:22:57;;;;;;;54.63;24.57;;;2.60;99.90;;;;;;5047565;28;20225;-49
2021/12/29 07:25:24;;;;;;;50.60;22.87;;;2.60;99.90;;;;;;5063859;28;20206;-51
2021/12/29 07:27:51;;;;;;;50.40;23.13;;;2.60;99.90;;;;;;5062075;28;20219;-46
2021/12/29 07:30:18;;;;;;;47.20;23.37;;;2.60;99.90;;;;;;5062608;28;20194;-47
2021/12/29 07:32:45;;;;;;;45.90;22.83;;;2.60;99.90;;;;;;5063057;28;20714;-50
2021/12/29 07:35:11;;;;;;;54.13;23.13;;;2.60;99.90;;;;;;5042361;28;20218;-47
2021/12/29 07:37:38;;;;;;;46.90;22.93;;;2.60;99.90;;;;;;5045501;28;20198;-49
2021/12/29 07:40:08;;;;;;;45.20;22.03;;;2.70;99.90;;;;;;5059057;28;20206;-49
2021/12/29 07:42:36;;;;;;;40.17;19.57;;;2.70;99.90;;;;;;5055435;28;20218;-50
2021/12/29 07:45:06;;;;;;;44.33;20.77;;;2.60;99.90;;;;;;5029189;28;20199;-47
2021/12/29 07:47:33;;;;;;;38.27;19.93;;;2.60;99.90;;;;;;5058611;28;20741;-47
2021/12/29 07:50:00;;;;;;;50.80;22.47;;;2.60;99.90;;;;;;5049577;28;20198;-50
2021/12/29 07:52:27;;;;;;;46.13;21.60;;;2.60;99.90;;;;;;5063474;28;20230;-47
2021/12/29 07:54:53;;;;;;;46.20;20.73;;;2.60;99.90;;;;;;5046806;28;20222;-50
2021/12/29 07:57:21;;;;;;;47.13;22.17;;;2.60;99.90;;;;;;5055739;28;20201;-48
2021/12/29 07:59:48;;;;;;;48.90;23.17;;;2.60;99.90;;;;;;5056941;28;20209;-50
2021/12/29 08:02:18;;;;;;;48.77;23.27;;;2.70;99.90;;;;;;5058572;28;20264;-47
2021/12/29 08:04:47;;;;;;;50.90;24.53;;;2.70;99.90;;;;;;5061057;28;20202;-51
2021/12/29 08:07:14;;;;;;;54.20;23.73;;;2.70;99.90;;;;;;5047108;28;20219;-46
2021/12/29 08:09:41;;;;;;;53.23;24.03;;;2.70;99.90;;;;;;5053738;28;20198;-47
2021/12/29 08:12:08;;;;;;;50.57;23.87;;;2.70;99.90;;;;;;5046677;28;20229;-51
2021/12/29 08:14:36;;;;;;;54.93;24.27;;;2.70;99.90;;;;;;5054574;28;20203;-46
2021/12/29 08:17:03;;;;;;;54.67;24.77;;;2.70;99.90;;;;;;5044965;28;22777;-49
2021/12/29 08:19:30;;;;;;;60.90;25.87;;;2.70;99.90;;;;;;5059423;28;20252;-49
2021/12/29 08:21:56;;;;;;;52.87;25.03;;;2.70;99.90;;;;;;5047275;28;20853;-48
2021/12/29 08:24:23;;;;;;;60.13;24.67;;;2.70;99.90;;;;;;5055182;28;20203;-47
2021/12/29 08:26:50;;;;;;;57.83;24.03;;;2.70;99.90;;;;;;5058709;28;20209;-48
2021/12/29 08:29:16;;;;;;;54.00;24.57;;;2.70;99.90;;;;;;5058092;28;20206;-49
2021/12/29 08:31:44;;;;;;;57.53;24.73;;;2.70;99.90;;;;;;5052803;28;20230;-49
2021/12/29 08:34:11;;;;;;;56.87;25.00;;;2.70;99.90;;;;;;5057392;28;20202;-50
2021/12/29 08:36:38;;;;;;;58.00;25.87;;;2.70;99.90;;;;;;5047379;28;20301;-49
2021/12/29 08:39:05;;;;;;;58.53;25.17;;;2.70;99.90;;;;;;5057372;28;20213;-49
2021/12/29 08:41:31;;;;;;;55.33;24.57;;;2.70;99.90;;;;;;5055242;28;20237;-51
2021/12/29 08:43:58;;;;;;;50.60;24.17;;;2.70;99.90;;;;;;5054059;28;20214;-46
2021/12/29 08:46:25;;;;;;;55.77;24.80;;;2.70;99.90;;;;;;5057916;28;20202;-50
2021/12/29 08:48:53;;;;;;;57.07;25.53;;;2.70;99.90;;;;;;5049797;28;20324;-46
2021/12/29 08:51:20;;;;;;;58.23;24.97;;;2.70;99.90;;;;;;5055789;28;20213;-47
2021/12/29 08:53:47;;;;;;;52.80;24.80;;;2.80;99.90;;;;;;5046575;28;20211;-49
2021/12/29 08:56:16;;;;;;;58.77;22.93;;;2.80;99.90;;;;;;5045960;28;20203;-52
2021/12/29 08:58:43;;;;;;;52.47;24.97;;;2.80;99.90;;;;;;5055347;28;20202;-52
2021/12/29 09:01:10;;;;;;;53.47;24.13;;;2.80;99.90;;;;;;5058753;28;20206;-48
2021/12/29 09:03:37;;;;;;;61.20;24.33;;;2.90;99.90;;;;;;5054644;28;20203;-49
2021/12/29 09:06:05;;;;;;;63.73;25.23;;;2.90;99.90;;;;;;5051851;28;20933;-48
2021/12/29 09:08:32;;;;;;;51.57;23.87;;;2.90;99.90;;;;;;5042869;28;20222;-51
2021/12/29 09:10:58;;;;;;;48.70;24.10;;;2.90;99.90;;;;;;5048986;28;20217;-49
2021/12/29 09:13:25;;;;;;;54.23;25.00;;;2.90;99.90;;;;;;5063100;28;20222;-46
2021/12/29 09:15:56;;;;;;;59.70;26.10;;;2.90;99.90;;;;;;5052292;28;20797;-48
2021/12/29 09:18:23;;;;;;;58.40;25.00;;;2.90;99.90;;;;;;5057747;28;20199;-46
2021/12/29 09:20:50;;;;;;;53.43;24.60;;;2.90;99.90;;;;;;5049274;28;20213;-49
2021/12/29 09:23:18;;;;;;;56.43;25.00;;;2.90;99.90;;;;;;5053759;28;20588;-46
2021/12/29 09:25:47;;;;;;;56.47;24.87;;;2.90;99.90;;;;;;5046891;28;20218;-51
2021/12/29 09:28:16;;;;;;;53.47;24.67;;;2.90;99.90;;;;;;5052618;28;20832;-47
2021/12/29 09:30:45;;;;;;;53.77;25.53;;;2.90;99.90;;;;;;5057470;28;20569;-50
2021/12/29 09:33:14;;;;;;;56.87;25.03;;;2.90;99.90;;;;;;5053500;28;20226;-49
2021/12/29 09:35:42;;;;;;;58.97;25.10;;;2.90;99.90;;;;;;5047064;28;20234;-50
2021/12/29 09:38:09;;;;;;;52.47;25.63;;;2.90;99.90;;;;;;5058343;28;20209;-46
2021/12/29 09:40:38;;;;;;;48.30;23.60;;;2.90;99.90;;;;;;5042497;28;20637;-50
2021/12/29 09:43:07;;;;;;;51.27;24.50;;;3.00;99.90;;;;;;5052538;28;20233;-49
2021/12/29 09:45:34;;;;;;;52.93;25.53;;;3.00;99.90;;;;;;5051754;28;20283;-50
2021/12/29 09:48:01;;;;;;;58.33;27.33;;;3.00;99.90;;;;;;5050768;28;20222;-47
2021/12/29 09:50:28;;;;;;;56.53;24.37;;;3.00;99.90;;;;;;5048778;28;20207;-48
2021/12/29 09:52:55;;;;;;;56.40;24.63;;;3.00;99.90;;;;;;5052251;28;20226;-50
2021/12/29 09:55:24;;;;;;;55.40;25.90;;;3.00;99.90;;;;;;5043724;28;20210;-47
2021/12/29 09:57:54;;;;;;;52.67;25.27;;;3.10;99.90;;;;;;5051959;28;20642;-46
2021/12/29 10:00:25;;;;;;;54.83;25.50;;;3.10;99.90;;;;;;5065666;28;20206;-50
2021/12/29 10:02:53;;;;;;;51.80;23.27;;;3.10;99.90;;;;;;5056154;28;20226;-44
2021/12/29 10:05:20;;;;;;;51.20;23.67;;;3.10;99.90;;;;;;5059015;28;20215;-47
2021/12/29 10:07:58;;;;;;;49.87;23.23;;;3.10;99.90;;;;;;5054095;28;21022;-50
2021/12/29 10:10:25;;;;;;;47.90;22.83;;;3.10;99.90;;;;;;5053114;28;20213;-49
2021/12/29 10:12:53;;;;;;;50.43;23.30;;;3.10;99.90;;;;;;5058268;28;20207;-46
2021/12/29 10:15:20;;;;;;;57.50;23.70;;;3.10;99.90;;;;;;5055718;28;20214;-45
2021/12/29 10:17:46;;;;;;;50.37;22.77;;;3.20;99.90;;;;;;5062667;28;20210;-47
2021/12/29 10:20:17;;;;;;;48.43;23.60;;;3.20;99.90;;;;;;5050660;28;20210;-46
2021/12/29 10:22:54;;;;;;;49.73;23.30;;;3.20;99.90;;;;;;5056542;28;21017;-46
2021/12/29 10:25:24;;;;;;;46.37;23.23;;;3.20;99.90;;;;;;5062858;28;20198;-47
2021/12/29 10:27:53;;;;;;;52.83;22.07;;;3.20;99.90;;;;;;5049798;28;20931;-46
2021/12/29 10:30:22;;;;;;;49.37;23.33;;;3.20;99.90;;;;;;5056137;28;20206;-48
2021/12/29 10:32:49;;;;;;;48.10;22.63;;;3.20;99.90;;;;;;5063213;28;20207;-47
2021/12/29 10:35:24;;;;;;;48.77;23.53;;;3.30;99.90;;;;;;5057277;28;20202;-46
2021/12/29 10:37:53;;;;;;;51.73;23.60;;;3.30;99.90;;;;;;5056354;28;22784;-43
2021/12/29 10:40:28;;;;;;;53.07;23.67;;;3.30;99.90;;;;;;5065081;28;20199;-45
2021/12/29 10:42:59;;;;;;;53.83;24.00;;;3.30;99.90;;;;;;5051334;28;20225;-43
2021/12/29 10:45:30;;;;;;;53.10;23.83;;;3.40;99.90;;;;;;5055749;28;20203;-47
2021/12/29 10:47:57;;;;;;;49.23;25.10;;;3.40;99.90;;;;;;5064034;28;20217;-44
2021/12/29 10:50:26;;;;;;;52.80;23.60;;;3.40;99.90;;;;;;5061494;28;20194;-46
2021/12/29 10:52:55;;;;;;;52.30;24.17;;;3.40;99.90;;;;;;5060890;28;20222;-45
2021/12/29 10:55:31;;;;;;;57.37;24.67;;;3.40;99.90;;;;;;5047197;28;20222;-43
2021/12/29 10:58:06;;;;;;;52.07;24.77;;;3.50;99.90;;;;;;5058253;28;20565;-46
2021/12/29 11:00:35;;;;;;;49.67;24.33;;;3.50;99.90;;;;;;5039198;28;20214;-47
2021/12/29 11:03:09;;;;;;;53.60;23.93;;;3.50;99.90;;;;;;5064676;28;20233;-45
2021/12/29 11:05:38;;;;;;;55.37;23.53;;;3.50;99.90;;;;;;5054304;28;20196;-47
2021/12/29 11:08:10;;;;;;;49.13;23.90;;;3.50;99.90;;;;;;5044258;28;20229;-46
2021/12/29 11:10:36;;;;;;;57.00;23.87;;;3.50;99.90;;;;;;5054441;28;20199;-42
2021/12/29 11:13:05;;;;;;;60.33;24.87;;;3.50;99.90;;;;;;5052449;28;20656;-47
2021/12/29 11:15:37;;;;;;;56.87;25.13;;;3.60;99.90;;;;;;5044702;28;20300;-46
2021/12/29 11:18:08;;;;;;;52.23;23.90;;;3.60;99.90;;;;;;5061182;28;20209;-43
2021/12/29 11:20:36;;;;;;;45.97;23.17;;;3.60;99.90;;;;;;5060894;28;20195;-44
2021/12/29 11:23:09;;;;;;;56.10;23.70;;;3.70;99.90;;;;;;5056233;28;20218;-43
2021/12/29 11:25:37;;;;;;;53.13;23.63;;;3.70;99.90;;;;;;5046046;28;20198;-46
2021/12/29 11:28:06;;;;;;;51.33;24.40;;;3.70;99.90;;;;;;5054091;28;20229;-42
2021/12/29 11:30:33;;;;;;;51.63;24.30;;;3.80;99.90;;;;;;5018575;28;24166;-43
2021/12/29 11:33:06;;;;;;;50.03;23.03;;;3.80;99.90;;;;;;5058196;28;20615;-43
2021/12/29 11:35:39;;;;;;;53.50;25.00;;;3.80;99.90;;;;;;5055128;28;20199;-43
2021/12/29 11:38:05;;;;;;;54.67;24.07;;;3.80;99.90;;;;;;5042215;28;20751;-43
2021/12/29 11:40:34;;;;;;;49.87;23.53;;;3.80;99.90;;;;;;5051125;28;20195;-45
2021/12/29 11:43:00;;;;;;;48.47;23.17;;;3.80;99.90;;;;;;5060918;28;20234;-42
2021/12/29 11:45:28;;;;;;;50.63;23.53;;;3.80;99.90;;;;;;5046128;28;20281;-47
2021/12/29 11:47:55;;;;;;;51.20;22.87;;;3.80;99.90;;;;;;5041310;28;21214;-43
2021/12/29 11:50:26;;;;;;;51.20;22.50;;;3.90;99.90;;;;;;5052966;28;20783;-44
2021/12/29 11:53:06;;;;;;;47.20;23.33;;;3.90;99.90;;;;;;5055847;28;20221;-49
2021/12/29 11:55:36;;;;;;;50.93;24.23;;;3.90;99.90;;;;;;5048646;28;20214;-45
2021/12/29 11:58:11;;;;;;;55.20;25.73;;;4.00;99.90;;;;;;5053704;28;20207;-43
2021/12/29 12:00:39;;;;;;;51.10;23.20;;;4.00;99.90;;;;;;5038070;28;20689;-46
2021/12/29 12:03:08;;;;;;;49.80;23.20;;;4.00;99.90;;;;;;5036841;28;20223;-45
2021/12/29 12:05:38;;;;;;;47.80;24.73;;;4.00;99.90;;;;;;5048468;28;20213;-45
2021/12/29 12:08:09;;;;;;;53.47;24.77;;;4.00;99.90;;;;;;5044802;28;20211;-49
2021/12/29 12:10:39;;;;;;;56.40;23.57;;;4.00;99.90;;;;;;5058870;28;20195;-44
2021/12/29 12:13:19;;;;;;;49.13;25.07;;;4.00;99.90;;;;;;5048865;28;20232;-45
2021/12/29 12:15:47;;;;;;;48.67;24.60;;;4.00;99.90;;;;;;5054512;28;20581;-45
2021/12/29 12:18:14;;;;;;;52.53;23.67;;;4.00;99.90;;;;;;5043980;28;20203;-49
2021/12/29 12:20:44;;;;;;;45.13;21.30;;;4.00;99.90;;;;;;5052570;28;20182;-44
2021/12/29 12:23:22;;;;;;;54.73;24.30;;;4.10;99.90;;;;;;5056399;28;20219;-46
2021/12/29 12:25:49;;;;;;;48.90;21.63;;;4.00;99.90;;;;;;5061590;28;20194;-44
2021/12/29 12:28:17;;;;;;;45.60;22.10;;;4.00;99.90;;;;;;5052037;28;20203;-48
2021/12/29 12:30:46;;;;;;;44.13;22.30;;;4.00;99.90;;;;;;5057551;28;20921;-44
2021/12/29 12:33:17;;;;;;;49.20;23.20;;;4.00;99.90;;;;;;5046794;28;20712;-43
2021/12/29 12:35:46;;;;;;;54.93;24.23;;;4.00;99.90;;;;;;5055217;28;20195;-43
2021/12/29 12:38:17;;;;;;;47.87;22.63;;;4.00;99.90;;;;;;5051147;28;20294;-48
2021/12/29 12:40:44;;;;;;;50.20;23.47;;;4.00;99.90;;;;;;5056214;28;20214;-46
2021/12/29 12:43:14;;;;;;;60.40;25.70;;;4.00;99.90;;;;;;5055170;28;20241;-46
2021/12/29 12:45:43;;;;;;;52.90;22.93;;;4.00;99.90;;;;;;5052511;28;20197;-43
2021/12/29 12:48:14;;;;;;;52.37;24.43;;;4.00;99.90;;;;;;5046756;28;20264;-43